createdAt,value
2022-12-04T00:02:25.257Z,103635.13
2022-12-04T00:05:12.126Z,103711.69
2022-12-04T00:07:58.969Z,103707.28
2022-12-04T00:10:45.810Z,103709.03
2022-12-04T00:13:32.561Z,103702.84
2022-12-04T00:16:19.690Z,103668.16
2022-12-04T00:19:06.859Z,103709.78
2022-12-04T00:21:53.645Z,103704.50
2022-12-04T00:24:40.410Z,103711.50
2022-12-04T00:27:27.181Z,103691.91
2022-12-04T00:30:13.935Z,103715.91
2022-12-04T00:33:00.695Z,103695.47
2022-12-04T00:35:47.476Z,103657.16
2022-12-04T00:38:34.437Z,103692.56
2022-12-04T00:41:21.253Z,103696.19
2022-12-04T00:44:08.062Z,103709.66
2022-12-04T00:46:54.858Z,103710.56
2022-12-04T00:49:41.598Z,103642.00
2022-12-04T00:52:28.451Z,103720.28
2022-12-04T00:55:15.256Z,103708.03
2022-12-04T00:58:01.996Z,103624.25
2022-12-04T01:00:48.874Z,103675.88
2022-12-04T01:03:35.901Z,103710.59
2022-12-04T01:06:23.630Z,103706.16
2022-12-04T01:09:12.134Z,103714.91
2022-12-04T01:11:58.912Z,103711.41
2022-12-04T01:14:45.690Z,103714.06
2022-12-04T01:17:32.436Z,103714.06
2022-12-04T01:20:19.190Z,103711.47
2022-12-04T01:23:05.926Z,103709.50
2022-12-04T01:25:52.761Z,103706.22
2022-12-04T01:28:39.810Z,103707.97
2022-12-04T01:31:30.014Z,103707.97
2022-12-04T01:34:17.299Z,103707.97
2022-12-04T01:37:04.053Z,103696.41
2022-12-04T01:39:30.945Z,103663.34
2022-12-04T01:42:17.715Z,103610.06
2022-12-04T01:45:53.776Z,103702.72
2022-12-04T01:48:48.438Z,103708.84
2022-12-04T01:51:46.362Z,103700.06
2022-12-04T01:54:42.367Z,103708.78
2022-12-04T01:57:40.791Z,103698.25
2022-12-04T02:00:35.327Z,103696.53
2022-12-04T02:03:22.276Z,103643.03
2022-12-04T02:06:09.041Z,103686.75
2022-12-04T02:08:56.897Z,103702.72
2022-12-04T02:11:56.769Z,103691.19
2022-12-04T02:15:20.264Z,103700.97
2022-12-04T02:18:13.083Z,103705.31
2022-12-04T02:21:17.409Z,103696.53
2022-12-04T02:24:22.333Z,103693.09
2022-12-04T02:27:22.072Z,103692.25
2022-12-04T02:30:16.002Z,103611.09
2022-12-04T02:33:07.334Z,103684.28
2022-12-04T02:36:04.268Z,103632.56
2022-12-04T02:38:57.544Z,103687.84
2022-12-04T02:42:24.738Z,103679.03
2022-12-04T02:45:19.993Z,103676.38
2022-12-04T02:48:07.405Z,103690.53
2022-12-04T02:51:00.520Z,103686.94
2022-12-04T02:54:01.749Z,103676.50
2022-12-04T02:56:56.152Z,103676.47
2022-12-04T02:59:49.634Z,103677.47
2022-12-04T03:02:52.734Z,103629.38
2022-12-04T03:05:45.375Z,103683.53
2022-12-04T03:08:37.634Z,103664.06
2022-12-04T03:11:25.066Z,103676.56
2022-12-04T03:14:19.500Z,103678.28
2022-12-04T03:17:08.430Z,103676.56
2022-12-04T03:20:01.905Z,103668.41
2022-12-04T03:22:51.627Z,103632.84
2022-12-04T03:25:38.623Z,103617.59
2022-12-04T03:28:31.070Z,103680.06
2022-12-04T03:31:27.937Z,103678.31
2022-12-04T03:34:17.830Z,103688.00
2022-12-04T03:37:14.558Z,103577.78
2022-12-04T03:40:13.109Z,103682.78
2022-12-04T03:43:07.335Z,103608.06
2022-12-04T03:46:07.419Z,103675.75
2022-12-04T03:49:19.080Z,103678.38
2022-12-04T03:52:12.492Z,103676.59
2022-12-04T03:55:13.909Z,103678.31
2022-12-04T03:58:04.602Z,103682.75
2022-12-04T04:00:53.264Z,103684.50
2022-12-04T04:03:48.371Z,103642.78
2022-12-04T04:06:42.277Z,103681.91
2022-12-04T04:09:34.321Z,103686.25
2022-12-04T04:12:28.537Z,103682.75
2022-12-04T04:15:20.133Z,103678.28
2022-12-04T04:18:07.815Z,103685.41
2022-12-04T04:20:57.730Z,103684.50
2022-12-04T04:23:45.813Z,103667.75
2022-12-04T04:26:34.197Z,103670.31
2022-12-04T04:29:21.335Z,103643.72
2022-12-04T04:32:26.215Z,103677.56
2022-12-04T04:35:23.713Z,103673.16
2022-12-04T04:38:31.847Z,103680.22
2022-12-04T04:41:18.551Z,103678.47
2022-12-04T04:44:16.012Z,103652.47
2022-12-04T04:47:10.985Z,103673.94
2022-12-04T04:50:00.474Z,103545.75
2022-12-04T04:52:48.572Z,103674.84
2022-12-04T04:55:37.844Z,103679.38
2022-12-04T04:58:38.521Z,103684.63
2022-12-04T05:01:31.385Z,103680.28
2022-12-04T05:04:18.186Z,103668.78
2022-12-04T05:07:04.938Z,103678.47
2022-12-04T05:09:51.695Z,103669.72
2022-12-04T05:12:38.549Z,103657.16
2022-12-04T05:15:25.712Z,103607.19
2022-12-04T05:18:12.454Z,103682.97
2022-12-04T05:21:00.275Z,103687.34
2022-12-04T05:23:47.121Z,103684.72
2022-12-04T05:26:33.890Z,103681.22
2022-12-04T05:29:20.736Z,103678.47
2022-12-04T05:32:07.502Z,103682.03
2022-12-04T05:34:54.505Z,103679.28
2022-12-04T05:37:42.217Z,103641.22
2022-12-04T05:40:29.507Z,103679.47
2022-12-04T05:43:17.308Z,103674.16
2022-12-04T05:46:04.072Z,103662.53
2022-12-04T05:48:51.447Z,103662.63
2022-12-04T05:51:38.270Z,103665.34
2022-12-04T05:54:25.048Z,103669.72
2022-12-04T05:57:12.102Z,103673.16
2022-12-04T05:59:58.978Z,103667.94
2022-12-04T06:02:45.889Z,103669.69
2022-12-04T06:05:32.867Z,103669.69
2022-12-04T06:08:19.724Z,103646.53
2022-12-04T06:11:06.523Z,103674.03
2022-12-04T06:13:53.318Z,103663.50
2022-12-04T06:16:42.671Z,103676.66
2022-12-04T06:19:33.032Z,103655.34
2022-12-04T06:22:19.789Z,103661.63
2022-12-04T06:25:06.722Z,103664.28
2022-12-04T06:27:53.750Z,103660.78
2022-12-04T06:30:40.931Z,103645.66
2022-12-04T06:33:27.672Z,103660.69
2022-12-04T06:36:25.497Z,103664.94
2022-12-04T06:39:18.648Z,103670.13
2022-12-04T06:42:06.123Z,103669.22
2022-12-04T06:44:52.882Z,103646.94
2022-12-04T06:47:39.708Z,103673.50
2022-12-04T06:50:27.299Z,103665.25
2022-12-04T06:53:14.054Z,103660.81
2022-12-04T06:56:07.762Z,103663.59
2022-12-04T06:58:55.034Z,103683.84
2022-12-04T07:01:45.316Z,103681.13
2022-12-04T07:04:32.057Z,103654.38
2022-12-04T07:07:18.888Z,103643.59
2022-12-04T07:10:05.733Z,103692.28
2022-12-04T07:12:52.581Z,103693.13
2022-12-04T07:15:39.349Z,103686.13
2022-12-04T07:18:26.121Z,103648.66
2022-12-04T07:21:12.869Z,103685.13
2022-12-04T07:23:59.638Z,103691.22
2022-12-04T07:26:47.853Z,103693.78
2022-12-04T07:29:34.813Z,103693.69
2022-12-04T07:32:21.574Z,103692.78
2022-12-04T07:35:08.349Z,103691.75
2022-12-04T07:37:57.922Z,103633.78
2022-12-04T07:40:45.091Z,103695.22
2022-12-04T07:43:31.872Z,103688.00
2022-12-04T07:46:19.668Z,103701.16
2022-12-04T07:49:06.676Z,103615.81
2022-12-04T07:51:53.421Z,103693.13
2022-12-04T07:54:40.157Z,103703.63
2022-12-04T07:57:26.896Z,103700.94
2022-12-04T08:00:13.638Z,103683.00
2022-12-04T08:03:00.470Z,103696.41
2022-12-04T08:05:47.232Z,103699.78
2022-12-04T08:08:34.025Z,103699.75
2022-12-04T08:11:21.509Z,103697.00
2022-12-04T08:14:08.676Z,103704.78
2022-12-04T08:16:55.611Z,103702.91
2022-12-04T08:19:42.455Z,103699.28
2022-12-04T08:22:29.321Z,103661.00
2022-12-04T08:25:16.379Z,103698.31
2022-12-04T08:28:03.147Z,103699.94
2022-12-04T08:30:49.969Z,103698.09
2022-12-04T08:33:36.764Z,103690.63
2022-12-04T08:36:27.452Z,103725.78
2022-12-04T08:39:14.522Z,103709.91
2022-12-04T08:42:01.381Z,103711.47
2022-12-04T08:44:48.161Z,103720.97
2022-12-04T08:47:35.135Z,103717.34
2022-12-04T08:50:22.318Z,103674.13
2022-12-04T08:53:09.149Z,103728.44
2022-12-04T08:55:55.894Z,103639.19
2022-12-04T08:58:43.599Z,103654.47
2022-12-04T09:01:33.076Z,103722.03
2022-12-04T09:04:19.962Z,103721.97
2022-12-04T09:07:06.749Z,103726.19
2022-12-04T09:09:53.509Z,103725.16
2022-12-04T09:12:40.316Z,103724.19
2022-12-04T09:15:28.249Z,103716.16
2022-12-04T09:18:15.021Z,103719.47
2022-12-04T09:21:01.809Z,103732.63
2022-12-04T09:23:49.569Z,103725.56
2022-12-04T09:26:41.523Z,103725.44
2022-12-04T09:29:28.481Z,103732.44
2022-12-04T09:32:15.294Z,103721.75
2022-12-04T09:35:02.070Z,103725.28
2022-12-04T09:37:48.858Z,103729.53
2022-12-04T09:40:46.035Z,103718.13
2022-12-04T09:43:51.283Z,103715.31
2022-12-04T09:46:51.679Z,103721.34
2022-12-04T09:49:47.626Z,103716.00
2022-12-04T09:53:11.980Z,103710.66
2022-12-04T09:56:16.070Z,103714.84
2022-12-04T09:59:07.270Z,103710.47
2022-12-04T10:02:20.735Z,103708.59
2022-12-04T10:05:07.704Z,103708.53
2022-12-04T10:08:24.902Z,103653.25
2022-12-04T10:11:53.488Z,103703.03
2022-12-04T10:15:03.824Z,103696.88
2022-12-04T10:18:09.081Z,103704.59
2022-12-04T10:21:10.902Z,103684.38
2022-12-04T10:24:25.543Z,103689.53
2022-12-04T10:27:17.262Z,103552.44
2022-12-04T12:22:38.393Z,103653.88
2022-12-04T12:26:06.474Z,103655.53
2022-12-04T12:29:04.758Z,103642.41
2022-12-04T12:32:07.763Z,103640.63
2022-12-04T12:34:54.529Z,103645.78
2022-12-04T12:38:04.200Z,103647.50
2022-12-04T12:41:08.831Z,103623.38
2022-12-04T12:43:57.583Z,103642.94
2022-12-04T12:46:54.721Z,103655.22
2022-12-04T12:49:47.833Z,103644.78
2022-12-04T12:52:44.906Z,103642.88
2022-12-04T12:55:42.707Z,103638.59
2022-12-04T12:58:38.136Z,103645.47
2022-12-04T13:01:39.901Z,103642.81
2022-12-04T13:04:52.209Z,103642.75
2022-12-04T13:07:38.971Z,103639.22
2022-12-04T13:10:51.991Z,103643.53
2022-12-04T13:13:48.430Z,103636.56
2022-12-04T13:16:58.549Z,103635.66
2022-12-04T13:19:54.651Z,103615.94
2022-12-04T13:22:56.602Z,103641.63
2022-12-04T13:26:06.360Z,103644.25
2022-12-04T13:29:17.784Z,103596.91
2022-12-04T13:32:26.801Z,103643.28
2022-12-04T13:35:38.390Z,103638.00
2022-12-04T13:38:41.196Z,103598.91
2022-12-04T13:41:36.118Z,103533.47
2022-12-04T13:44:41.163Z,103645.81
2022-12-04T13:47:33.006Z,103636.22
2022-12-04T13:50:40.148Z,103642.34
2022-12-04T13:53:50.675Z,103538.03
2022-12-04T13:56:46.440Z,103642.34
2022-12-04T13:59:48.152Z,103636.22
2022-12-04T14:02:46.975Z,103636.22
2022-12-04T14:05:34.525Z,103618.38
2022-12-04T14:08:26.328Z,103636.28
2022-12-04T14:11:38.614Z,103635.44
2022-12-04T14:14:26.661Z,103638.97
2022-12-04T14:17:15.053Z,103639.88
2022-12-04T14:20:07.999Z,103645.16
2022-12-04T14:22:57.839Z,103645.16
2022-12-04T14:25:53.976Z,103639.09
2022-12-04T14:28:53.167Z,103643.53
2022-12-04T14:31:57.371Z,103634.91
2022-12-04T14:34:50.935Z,103636.69
2022-12-04T14:37:44.598Z,103574.53
2022-12-04T14:41:05.554Z,103628.91
2022-12-04T14:43:59.699Z,103619.38
2022-12-04T14:47:01.657Z,103628.06
2022-12-04T14:49:55.986Z,103623.81
2022-12-04T14:52:52.942Z,103604.41
2022-12-04T14:55:52.331Z,103516.25
2022-12-04T14:58:51.934Z,103614.34
2022-12-04T15:01:45.331Z,103615.34
2022-12-04T15:04:49.128Z,103614.53
2022-12-04T15:07:45.195Z,103612.78
2022-12-04T15:10:40.905Z,103591.41
2022-12-04T15:13:28.065Z,103508.63
2022-12-04T15:16:14.924Z,103596.31
2022-12-04T15:19:01.740Z,103606.06
2022-12-04T15:21:59.860Z,103574.94
2022-12-04T15:24:46.609Z,103601.84
2022-12-04T15:27:35.588Z,103586.69
2022-12-04T15:30:23.289Z,103577.88
2022-12-04T15:33:17.767Z,103565.56
2022-12-04T15:36:15.987Z,103600.34
2022-12-04T15:39:03.154Z,103584.41
2022-12-04T15:41:55.171Z,103588.03
2022-12-04T15:44:43.948Z,103593.44
2022-12-04T15:47:45.753Z,103597.00
2022-12-04T15:50:35.306Z,103587.47
2022-12-04T15:53:46.463Z,103581.41
2022-12-04T15:56:20.027Z,103585.78
2022-12-04T15:59:18.192Z,103594.53
2022-12-04T16:02:05.104Z,103593.69
2022-12-04T16:04:51.959Z,103584.13
2022-12-04T16:07:42.388Z,103584.19
2022-12-04T16:10:44.410Z,103518.34
2022-12-04T16:13:47.653Z,103571.13
2022-12-04T16:16:37.586Z,103587.91
2022-12-04T16:19:37.154Z,103580.00
2022-12-04T16:22:30.824Z,103594.88
2022-12-04T16:25:17.583Z,103591.44
2022-12-04T16:28:04.427Z,103583.59
2022-12-04T16:30:53.792Z,103582.84
2022-12-04T16:33:40.563Z,103578.50
2022-12-04T16:36:30.059Z,103581.19
2022-12-04T16:39:16.845Z,103568.19
2022-12-04T16:42:03.612Z,103569.97
2022-12-04T16:44:50.372Z,103571.75
2022-12-04T16:47:37.701Z,103473.53
2022-12-04T16:50:24.907Z,103558.75
2022-12-04T16:53:12.183Z,103554.41
2022-12-04T16:55:59.867Z,103513.44
2022-12-04T16:58:46.622Z,103555.38
2022-12-04T17:01:41.912Z,103547.59
2022-12-04T17:04:29.761Z,103545.06
2022-12-04T17:07:16.674Z,103547.66
2022-12-04T17:10:03.425Z,103507.63
2022-12-04T17:12:50.210Z,103543.34
2022-12-04T17:15:36.982Z,103546.88
2022-12-04T17:18:23.919Z,103533.81
2022-12-04T17:21:10.695Z,103530.41
2022-12-04T17:23:57.873Z,103499.38
2022-12-04T17:26:44.667Z,103522.56
2022-12-04T17:29:31.462Z,103525.25
2022-12-04T17:32:18.204Z,103526.16
2022-12-04T17:35:05.015Z,103520.75
2022-12-04T17:37:59.324Z,103532.22
2022-12-04T17:40:48.967Z,103529.59
2022-12-04T17:43:35.692Z,103534.78
2022-12-04T17:46:28.061Z,103539.09
2022-12-04T17:49:16.349Z,103526.53
2022-12-04T17:52:03.270Z,103541.59
2022-12-04T17:54:50.036Z,103539.81
2022-12-04T17:57:37.043Z,103538.91
2022-12-04T18:00:24.465Z,103535.34
2022-12-04T18:03:11.310Z,103529.94
2022-12-04T18:05:58.084Z,103414.31
2022-12-04T18:08:49.741Z,103529.94
2022-12-04T18:11:37.800Z,103529.88
2022-12-04T18:14:27.154Z,103526.41
2022-12-04T18:17:15.631Z,103522.00
2022-12-04T18:20:04.878Z,103526.16
2022-12-04T18:22:52.499Z,103527.09
2022-12-04T18:25:41.315Z,103528.75
2022-12-04T18:28:28.089Z,103523.28
2022-12-04T18:31:14.903Z,103525.91
2022-12-04T18:34:02.498Z,103517.03
2022-12-04T18:36:51.036Z,103517.03
2022-12-04T18:39:43.364Z,103517.72
2022-12-04T18:42:30.100Z,103508.78
2022-12-04T18:45:16.859Z,103502.53
2022-12-04T18:48:03.604Z,103512.19
2022-12-04T18:51:10.331Z,103421.47
2022-12-04T18:54:20.245Z,103510.25
2022-12-04T18:57:27.086Z,103517.97
2022-12-04T19:00:34.183Z,103500.38
2022-12-04T19:03:40.958Z,103494.91
2022-12-04T19:06:57.134Z,103497.50
2022-12-04T19:10:11.576Z,103493.91
2022-12-04T19:13:18.481Z,103492.00
2022-12-04T19:16:30.390Z,103493.66
2022-12-04T19:19:37.387Z,103482.03
2022-12-04T19:22:44.225Z,103487.25
2022-12-04T19:25:50.932Z,103495.81
2022-12-04T19:28:57.725Z,103488.69
2022-12-04T19:32:04.510Z,103392.28
2022-12-04T19:35:11.328Z,103496.03
2022-12-04T19:38:18.050Z,103480.72
2022-12-04T19:41:30.885Z,103455.78
2022-12-04T19:44:48.297Z,103494.06
2022-12-04T19:47:55.457Z,103491.28
2022-12-04T19:51:03.075Z,103485.69
2022-12-04T19:54:10.433Z,103490.91
2022-12-04T19:57:17.189Z,103488.19
2022-12-04T20:00:24.667Z,103466.81
2022-12-04T20:03:31.511Z,103474.81
2022-12-04T20:06:41.914Z,103472.03
2022-12-04T20:09:52.448Z,103486.66
2022-12-04T20:12:59.506Z,103479.53
2022-12-04T20:16:06.241Z,103479.38
2022-12-04T20:19:13.751Z,103481.81
2022-12-04T20:22:20.473Z,103448.84
2022-12-04T20:25:27.561Z,103472.03
2022-12-04T20:28:34.319Z,103470.09
2022-12-04T20:31:46.773Z,103475.16
2022-12-04T20:34:53.504Z,103462.00
2022-12-04T20:38:00.260Z,103465.31
2022-12-04T20:41:06.994Z,103454.75
2022-12-04T20:44:14.075Z,103452.91
2022-12-04T20:47:20.827Z,103451.06
2022-12-04T20:50:28.015Z,103450.91
2022-12-04T20:53:34.937Z,103427.56
2022-12-04T20:56:42.006Z,103454.28
2022-12-04T20:59:48.758Z,103405.44
2022-12-04T21:02:56.231Z,103440.31
2022-12-04T21:06:09.462Z,103398.25
2022-12-04T21:09:16.743Z,103436.72
2022-12-04T21:12:24.123Z,103419.00
2022-12-04T21:15:29.520Z,103420.09
2022-12-04T21:18:16.250Z,103403.09
2022-12-04T21:21:24.262Z,103393.38
2022-12-04T21:24:32.787Z,103408.59
2022-12-04T21:27:39.498Z,103405.00
2022-12-04T21:30:46.296Z,103396.78
2022-12-04T21:33:54.497Z,103399.59
2022-12-04T21:37:02.635Z,103402.13
2022-12-04T21:40:09.457Z,103393.38
2022-12-04T21:43:16.192Z,103389.81
2022-12-04T21:46:08.854Z,103384.41
2022-12-04T21:48:56.098Z,103387.00
2022-12-04T21:51:59.121Z,103387.75
2022-12-04T21:54:47.565Z,103395.41
2022-12-04T21:57:34.361Z,103390.97
2022-12-04T22:00:21.104Z,103383.09
2022-12-04T22:03:07.941Z,103376.88
2022-12-04T22:05:54.794Z,103381.13
2022-12-04T22:08:41.561Z,103385.44
2022-12-04T22:11:30.384Z,103386.22
2022-12-04T22:14:17.151Z,103372.16
2022-12-04T22:17:03.893Z,103368.66
2022-12-04T22:19:50.704Z,103374.63
2022-12-04T22:22:37.438Z,103357.09
2022-12-04T22:25:44.164Z,103360.44
2022-12-04T22:28:50.871Z,103349.63
2022-12-04T22:31:57.583Z,103349.75
2022-12-04T22:35:04.346Z,103345.25
2022-12-04T22:38:11.287Z,103276.97
2022-12-04T22:41:20.163Z,103296.28
2022-12-04T22:44:26.877Z,103295.66
2022-12-04T22:47:33.666Z,103327.34
2022-12-04T22:50:40.434Z,103331.56
2022-12-04T22:53:47.149Z,103300.38
2022-12-04T22:56:54.168Z,103319.00
2022-12-04T23:00:00.885Z,103313.66
2022-12-04T23:03:07.776Z,103298.06
2022-12-04T23:06:14.537Z,103298.91
2022-12-04T23:09:28.631Z,103239.47
2022-12-04T23:12:35.385Z,103285.75
2022-12-04T23:15:42.131Z,103286.47
2022-12-04T23:18:49.290Z,103207.19
2022-12-04T23:21:57.368Z,103290.69
2022-12-04T23:25:04.324Z,103260.97
2022-12-04T23:28:11.059Z,103275.81
2022-12-04T23:31:18.118Z,103272.34
2022-12-04T23:34:26.113Z,103267.00
2022-12-04T23:37:32.856Z,103254.25
2022-12-04T23:40:39.597Z,103257.75
2022-12-04T23:43:46.480Z,103274.66
2022-12-04T23:46:53.538Z,103265.91
2022-12-04T23:50:00.567Z,103264.13
2022-12-04T23:53:07.423Z,103255.34
2022-12-04T23:56:28.675Z,103244.06
2022-12-04T23:59:35.426Z,103232.72
